createdAt,value
2019-03-05T00:00:14.827Z,79.90
2019-03-05T00:02:43.819Z,80.50
2019-03-05T00:05:12.787Z,82.40
2019-03-05T00:07:41.797Z,82.20
2019-03-05T00:10:11.547Z,81.20
2019-03-05T00:12:40.459Z,80.80
2019-03-05T00:15:10.725Z,81.60
2019-03-05T00:17:39.697Z,81.70
2019-03-05T00:20:10.707Z,81.20
2019-03-05T00:22:39.763Z,82.10
2019-03-05T00:25:10.996Z,81.50
2019-03-05T00:27:55.082Z,80.60
2019-03-05T00:31:11.520Z,80.80
2019-03-05T00:34:17.058Z,81.40
2019-03-05T00:37:05.607Z,82.00
2019-03-05T00:40:11.782Z,81.90
2019-03-05T00:43:23.974Z,82.60
2019-03-05T00:46:06.875Z,82.60
2019-03-05T00:49:06.852Z,82.50
2019-03-05T00:52:22.854Z,80.80
2019-03-05T00:55:15.103Z,79.80
2019-03-05T00:58:20.782Z,78.30
2019-03-05T01:01:13.536Z,79.10
2019-03-05T01:04:22.000Z,76.90
2019-03-05T01:06:50.955Z,72.80
2019-03-05T01:09:23.239Z,71.70
2019-03-05T01:11:52.430Z,72.10
2019-03-05T01:14:23.268Z,72.90
2019-03-05T01:16:52.298Z,76.00
2019-03-05T01:19:21.258Z,77.80
2019-03-05T01:21:50.156Z,78.30
2019-03-05T01:24:19.711Z,80.10
2019-03-05T01:26:48.612Z,82.60
2019-03-05T01:29:17.417Z,85.60
2019-03-05T01:32:17.291Z,89.40
2019-03-05T01:35:07.645Z,90.90
2019-03-05T01:37:36.647Z,92.60
2019-03-05T01:40:41.145Z,94.20
2019-03-05T01:43:10.146Z,94.80
2019-03-05T01:45:39.056Z,95.70
2019-03-05T01:48:08.282Z,96.00
2019-03-05T01:50:37.381Z,96.10
2019-03-05T01:53:06.282Z,96.30
2019-03-05T01:55:35.373Z,96.40
2019-03-05T01:58:04.325Z,96.20
2019-03-05T02:00:33.482Z,96.40
2019-03-05T02:03:02.446Z,96.50
2019-03-05T02:05:31.926Z,96.50
2019-03-05T02:08:00.863Z,96.30
2019-03-05T02:10:30.221Z,96.50
2019-03-05T02:12:59.196Z,96.70
2019-03-05T02:15:28.088Z,96.60
2019-03-05T02:17:57.020Z,96.70
2019-03-05T02:20:26.306Z,96.60
2019-03-05T02:23:11.415Z,96.50
2019-03-05T02:25:51.623Z,96.60
2019-03-05T02:28:36.860Z,96.40
2019-03-05T02:31:27.665Z,96.20
2019-03-05T02:34:21.043Z,95.90
2019-03-05T02:37:26.191Z,95.90
2019-03-05T02:40:14.318Z,95.90
2019-03-05T02:43:08.324Z,96.00
2019-03-05T02:45:55.041Z,96.10
2019-03-05T02:48:49.037Z,95.70
2019-03-05T02:51:57.662Z,95.40
2019-03-05T02:54:50.351Z,95.40
2019-03-05T02:57:17.839Z,95.40
2019-03-05T02:59:51.251Z,95.30
2019-03-05T03:02:52.090Z,94.30
2019-03-05T03:05:36.226Z,93.70
2019-03-05T03:08:05.319Z,93.90
2019-03-05T03:10:35.042Z,93.70
2019-03-05T03:13:04.219Z,93.70
2019-03-05T03:15:33.233Z,93.60
2019-03-05T03:18:02.090Z,93.40
2019-03-05T03:20:31.099Z,93.50
2019-03-05T03:22:59.954Z,93.30
2019-03-05T03:25:28.954Z,93.00
2019-03-05T03:27:57.797Z,92.50
2019-03-05T03:30:27.777Z,92.40
2019-03-05T03:32:56.747Z,91.90
2019-03-05T03:35:25.726Z,90.40
2019-03-05T03:37:54.709Z,90.40
2019-03-05T03:40:24.396Z,90.30
2019-03-05T03:42:53.939Z,89.40
2019-03-05T03:45:24.277Z,89.50
2019-03-05T03:47:53.556Z,90.30
2019-03-05T03:50:22.508Z,91.00
2019-03-05T03:52:52.036Z,92.20
2019-03-05T03:55:21.233Z,93.60
2019-03-05T03:57:50.482Z,95.70
2019-03-05T04:00:21.279Z,97.80
2019-03-05T04:02:50.753Z,99.00
2019-03-05T04:05:19.974Z,99.90
2019-03-05T04:07:49.088Z,99.00
2019-03-05T04:10:18.179Z,99.20
2019-03-05T04:12:47.156Z,99.10
2019-03-05T04:15:17.922Z,98.70
2019-03-05T04:17:47.148Z,99.00
2019-03-05T04:20:23.895Z,99.70
2019-03-05T04:22:52.862Z,98.60
2019-03-05T04:25:21.681Z,97.50
2019-03-05T04:27:50.694Z,95.00
2019-03-05T04:30:19.605Z,95.40
2019-03-05T04:32:48.917Z,93.20
2019-03-05T04:35:17.759Z,93.70
2019-03-05T04:37:46.575Z,93.20
2019-03-05T04:40:15.564Z,93.70
2019-03-05T04:42:44.463Z,92.90
2019-03-05T04:45:31.555Z,93.90
2019-03-05T04:48:00.443Z,93.70
2019-03-05T04:50:37.100Z,93.80
2019-03-05T04:53:05.999Z,93.20
2019-03-05T04:55:34.837Z,94.20
2019-03-05T04:58:04.100Z,93.80
2019-03-05T05:00:33.369Z,94.20
2019-03-05T05:03:02.345Z,93.50
2019-03-05T05:05:31.260Z,93.70
2019-03-05T05:08:00.131Z,92.30
2019-03-05T05:10:29.079Z,92.50
2019-03-05T05:12:57.923Z,92.00
2019-03-05T05:15:29.090Z,93.00
2019-03-05T05:17:58.256Z,93.00
2019-03-05T05:20:27.302Z,94.00
2019-03-05T05:22:56.383Z,95.60
2019-03-05T05:25:25.762Z,95.60
2019-03-05T05:27:54.729Z,94.00
2019-03-05T05:30:34.732Z,94.30
2019-03-05T05:33:03.995Z,95.50
2019-03-05T05:35:33.119Z,93.50
2019-03-05T05:38:02.119Z,94.30
2019-03-05T05:40:32.933Z,94.70
2019-03-05T05:43:01.882Z,93.60
2019-03-05T05:45:37.203Z,92.90
2019-03-05T05:48:06.197Z,92.10
2019-03-05T05:50:35.023Z,93.10
2019-03-05T05:53:04.779Z,92.50
2019-03-05T05:55:33.710Z,92.30
2019-03-05T05:58:02.651Z,93.00
2019-03-05T06:00:31.936Z,93.20
2019-03-05T06:03:00.872Z,93.00
2019-03-05T06:05:30.443Z,93.30
2019-03-05T06:08:00.467Z,94.70
2019-03-05T06:10:29.492Z,93.20
2019-03-05T06:12:58.935Z,93.50
2019-03-05T06:15:27.880Z,93.50
2019-03-05T06:17:56.955Z,94.10
2019-03-05T06:20:25.763Z,93.90
2019-03-05T06:22:54.753Z,94.30
2019-03-05T06:25:23.751Z,95.30
2019-03-05T06:27:52.552Z,94.80
2019-03-05T06:30:22.152Z,95.80
2019-03-05T06:32:51.069Z,96.90
2019-03-05T06:35:20.063Z,98.90
2019-03-05T06:37:49.625Z,99.70
2019-03-05T06:40:18.537Z,99.90
2019-03-05T06:42:47.608Z,99.90
2019-03-05T06:45:17.109Z,99.90
2019-03-05T06:47:46.091Z,99.90
2019-03-05T06:50:15.234Z,99.90
2019-03-05T06:52:44.216Z,99.90
2019-03-05T06:55:13.710Z,99.90
2019-03-05T06:57:42.795Z,99.90
2019-03-05T07:00:24.338Z,99.90
2019-03-05T07:06:04.118Z,99.90
2019-03-05T07:08:33.359Z,99.90
2019-03-05T07:11:58.825Z,99.90
2019-03-05T07:14:45.035Z,99.90
2019-03-05T07:17:24.847Z,99.90
2019-03-05T07:20:24.774Z,99.90
2019-03-05T07:23:20.862Z,99.90
2019-03-05T07:25:49.772Z,99.90
2019-03-05T07:28:18.701Z,99.90
2019-03-05T07:30:47.620Z,99.90
2019-03-05T07:33:16.557Z,99.90
2019-03-05T07:35:47.111Z,99.90
2019-03-05T07:38:16.462Z,99.90
2019-03-05T07:40:45.441Z,99.90
2019-03-05T07:43:14.342Z,99.90
2019-03-05T07:45:43.267Z,99.90
2019-03-05T07:48:12.086Z,99.90
2019-03-05T07:50:41.031Z,99.90
2019-03-05T07:53:11.198Z,99.90
2019-03-05T07:55:40.146Z,99.90
2019-03-05T07:58:09.154Z,99.90
2019-03-05T08:00:39.669Z,99.90
2019-03-05T08:03:08.947Z,99.90
2019-03-05T08:05:38.279Z,99.90
2019-03-05T08:08:50.956Z,99.90
2019-03-05T08:11:21.295Z,99.90
2019-03-05T08:14:15.073Z,99.90
2019-03-05T08:16:43.928Z,99.90
2019-03-05T08:19:12.835Z,99.90
2019-03-05T08:21:42.083Z,99.90
2019-03-05T08:24:11.125Z,99.90
2019-03-05T08:26:39.953Z,99.90
2019-03-05T08:29:08.862Z,99.90
2019-03-05T08:31:37.991Z,99.90
2019-03-05T08:34:06.979Z,99.90
2019-03-05T08:36:35.987Z,99.90
2019-03-05T08:39:07.269Z,99.90
2019-03-05T08:41:37.020Z,99.90
2019-03-05T08:44:05.955Z,99.90
2019-03-05T08:46:34.871Z,99.90
2019-03-05T08:49:04.015Z,99.90
2019-03-05T08:51:32.912Z,99.90
2019-03-05T08:54:01.961Z,99.90
2019-03-05T08:56:31.570Z,99.90
2019-03-05T08:59:00.559Z,99.90
2019-03-05T09:04:05.389Z,99.90
2019-03-05T09:06:34.381Z,99.90
2019-03-05T09:09:04.623Z,99.90
2019-03-05T09:11:33.904Z,99.90
2019-03-05T09:14:02.874Z,99.90
2019-03-05T09:16:32.465Z,99.90
2019-03-05T09:19:01.414Z,99.90
2019-03-05T09:21:30.251Z,99.90
2019-03-05T09:23:59.101Z,99.90
2019-03-05T09:26:27.956Z,99.90
2019-03-05T09:28:56.878Z,99.90
2019-03-05T09:31:27.698Z,99.90
2019-03-05T09:33:56.566Z,99.90
2019-03-05T09:36:25.455Z,99.90
2019-03-05T09:38:54.491Z,99.90
2019-03-05T09:41:23.517Z,99.40
2019-03-05T09:43:52.409Z,98.20
2019-03-05T09:46:21.355Z,99.20
2019-03-05T09:48:50.211Z,98.20
2019-03-05T09:51:19.161Z,98.50
2019-03-05T09:53:48.356Z,99.20
2019-03-05T09:56:17.711Z,99.40
2019-03-05T09:58:47.182Z,99.40
2019-03-05T10:01:17.408Z,99.20
2019-03-05T10:03:46.611Z,99.40
2019-03-05T10:06:15.680Z,99.40
2019-03-05T10:08:46.520Z,98.60
2019-03-05T10:11:15.507Z,97.40
2019-03-05T10:13:44.417Z,97.90
2019-03-05T10:16:13.394Z,97.50
2019-03-05T10:18:42.592Z,98.10
2019-03-05T10:21:12.521Z,98.10
2019-03-05T10:23:41.825Z,97.90
2019-03-05T10:26:10.782Z,97.20
2019-03-05T10:28:40.320Z,97.40
2019-03-05T10:31:12.496Z,96.60
2019-03-05T10:33:41.335Z,96.10
2019-03-05T10:36:10.667Z,96.60
2019-03-05T10:38:39.544Z,95.50
2019-03-05T10:41:08.520Z,95.50
2019-03-05T10:43:37.359Z,94.80
2019-03-05T10:46:06.752Z,93.60
2019-03-05T10:48:36.120Z,94.10
2019-03-05T10:51:06.783Z,94.00
2019-03-05T10:53:36.067Z,93.50
2019-03-05T10:56:06.403Z,92.80
2019-03-05T10:58:35.541Z,93.10
2019-03-05T11:01:05.968Z,93.40
2019-03-05T11:03:36.871Z,92.50
2019-03-05T11:06:06.786Z,93.40
2019-03-05T11:08:35.648Z,92.60
2019-03-05T11:13:39.350Z,92.10
2019-03-05T11:16:08.816Z,91.60
2019-03-05T11:18:38.643Z,92.20
2019-03-05T11:21:07.687Z,88.80
2019-03-05T11:23:37.762Z,89.90
2019-03-05T11:26:06.711Z,88.70
2019-03-05T11:28:35.606Z,89.90
2019-03-05T11:31:05.784Z,90.90
2019-03-05T11:33:34.747Z,87.30
2019-03-05T11:36:04.101Z,84.00
2019-03-05T11:38:33.098Z,82.50
2019-03-05T11:41:02.271Z,81.00
2019-03-05T11:43:31.183Z,76.30
2019-03-05T11:46:00.207Z,77.00
2019-03-05T11:48:29.048Z,76.80
2019-03-05T11:50:58.017Z,78.20
2019-03-05T11:53:27.024Z,75.10
2019-03-05T11:55:56.235Z,75.20
2019-03-05T11:58:25.424Z,71.70
2019-03-05T12:01:07.267Z,67.50
2019-03-05T12:03:36.535Z,68.70
2019-03-05T12:06:05.520Z,70.90
2019-03-05T12:08:35.144Z,65.30
2019-03-05T12:11:05.476Z,66.60
2019-03-05T12:13:34.720Z,68.80
2019-03-05T12:16:08.138Z,70.10
2019-03-05T12:18:37.932Z,66.70
2019-03-05T12:21:06.911Z,62.70
2019-03-05T12:23:35.913Z,62.50
2019-03-05T12:26:05.139Z,60.00
2019-03-05T12:28:34.044Z,58.00
2019-03-05T12:31:04.626Z,59.50
2019-03-05T12:33:33.610Z,62.80
2019-03-05T12:36:02.611Z,64.60
2019-03-05T12:38:31.727Z,68.30
2019-03-05T12:41:00.735Z,80.70
2019-03-05T12:43:30.075Z,94.80
2019-03-05T12:45:58.967Z,97.80
2019-03-05T12:48:39.266Z,98.10
2019-03-05T12:50:59.833Z,99.20
2019-03-05T12:53:28.933Z,94.40
2019-03-05T12:55:57.949Z,93.70
2019-03-05T12:58:27.080Z,88.90
2019-03-05T13:00:56.055Z,91.50
2019-03-05T13:03:25.019Z,89.50
2019-03-05T13:05:53.909Z,89.30
2019-03-05T13:08:22.938Z,83.30
2019-03-05T13:10:51.847Z,76.70
2019-03-05T13:13:20.784Z,76.90
2019-03-05T13:15:52.885Z,76.90
2019-03-05T13:18:20.391Z,68.40
2019-03-05T13:20:50.427Z,69.50
2019-03-05T13:23:19.339Z,68.60
2019-03-05T13:25:48.273Z,66.00
2019-03-05T13:28:17.262Z,62.20
2019-03-05T13:30:46.523Z,67.00
2019-03-05T13:33:15.824Z,70.20
2019-03-05T13:35:44.756Z,72.00
2019-03-05T13:38:13.750Z,70.10
2019-03-05T13:40:43.117Z,73.10
2019-03-05T13:43:12.139Z,69.70
2019-03-05T13:45:42.327Z,65.90
2019-03-05T13:48:19.752Z,68.40
2019-03-05T13:51:32.247Z,65.60
2019-03-05T13:54:44.007Z,62.60
2019-03-05T13:57:51.445Z,64.10
2019-03-05T14:00:19.768Z,61.20
2019-03-05T14:03:03.907Z,59.90
2019-03-05T14:05:55.211Z,57.20
2019-03-05T14:09:08.752Z,54.60
2019-03-05T14:11:37.525Z,52.10
2019-03-05T14:14:07.723Z,54.30
2019-03-05T14:16:36.690Z,51.90
2019-03-05T14:19:05.776Z,48.40
2019-03-05T14:21:34.741Z,47.50
2019-03-05T14:24:03.849Z,46.50
2019-03-05T14:26:32.946Z,47.00
2019-03-05T14:29:02.219Z,46.20
2019-03-05T14:31:31.948Z,45.10
2019-03-05T14:34:00.956Z,43.40
2019-03-05T14:36:30.099Z,44.70
2019-03-05T14:38:59.875Z,45.80
2019-03-05T14:41:29.600Z,46.70
2019-03-05T14:43:59.331Z,46.60
2019-03-05T14:46:28.892Z,43.90
2019-03-05T14:48:57.936Z,44.40
2019-03-05T14:51:27.052Z,43.40
2019-03-05T14:53:56.000Z,43.10
2019-03-05T14:58:53.990Z,42.50
2019-03-05T15:01:23.291Z,43.00
2019-03-05T15:03:53.754Z,42.40
2019-03-05T15:06:23.006Z,41.20
2019-03-05T15:08:51.876Z,41.90
2019-03-05T15:11:21.279Z,41.30
2019-03-05T15:13:50.236Z,41.70
2019-03-05T15:16:19.310Z,40.50
2019-03-05T15:18:48.392Z,40.50
2019-03-05T15:21:17.433Z,40.90
2019-03-05T15:23:46.635Z,40.70
2019-03-05T15:26:15.602Z,39.40
2019-03-05T15:28:55.817Z,40.50
2019-03-05T15:31:15.409Z,41.40
2019-03-05T15:33:44.836Z,41.70
2019-03-05T15:36:23.324Z,41.30
2019-03-05T15:38:45.034Z,40.90
2019-03-05T15:41:14.752Z,41.30
2019-03-05T15:43:44.343Z,41.20
2019-03-05T15:46:13.392Z,39.80
2019-03-05T15:48:43.798Z,39.00
2019-03-05T15:51:12.851Z,40.00
2019-03-05T15:53:42.475Z,39.70
2019-03-05T15:56:11.642Z,39.50
2019-03-05T15:58:44.139Z,39.90
2019-03-05T16:01:22.018Z,40.40
2019-03-05T16:03:55.263Z,38.90
2019-03-05T16:06:24.401Z,38.20
2019-03-05T16:08:53.683Z,37.20
2019-03-05T16:11:30.209Z,37.70
2019-03-05T16:14:16.555Z,36.90
2019-03-05T16:16:44.590Z,37.80
2019-03-05T16:19:16.589Z,38.70
2019-03-05T16:21:44.226Z,39.20
2019-03-05T16:24:13.276Z,40.00
2019-03-05T16:26:42.260Z,40.80
2019-03-05T16:29:11.692Z,40.90
2019-03-05T16:32:05.751Z,43.00
2019-03-05T16:34:56.720Z,42.70
2019-03-05T16:37:39.214Z,42.20
2019-03-05T16:40:17.503Z,42.10
2019-03-05T16:43:12.171Z,42.90
2019-03-05T16:46:00.277Z,43.60
2019-03-05T16:48:48.698Z,44.70
2019-03-05T16:51:31.943Z,46.30
2019-03-05T16:54:22.931Z,46.50
2019-03-05T16:57:15.826Z,47.70
2019-03-05T17:00:00.457Z,48.50
2019-03-05T17:02:35.726Z,49.00
2019-03-05T17:05:22.975Z,49.80
2019-03-05T17:08:17.471Z,51.30
2019-03-05T17:11:00.622Z,51.80
2019-03-05T17:13:29.681Z,52.70
2019-03-05T17:15:59.582Z,53.50
2019-03-05T17:18:28.552Z,55.10
2019-03-05T17:20:57.531Z,55.10
2019-03-05T17:23:26.653Z,56.00
2019-03-05T17:25:55.755Z,56.40
2019-03-05T17:28:25.770Z,57.10
2019-03-05T17:30:54.746Z,57.50
2019-03-05T17:33:23.858Z,57.90
2019-03-05T17:35:52.979Z,58.50
2019-03-05T17:38:21.851Z,58.10
2019-03-05T17:40:50.971Z,59.10
2019-03-05T17:43:27.138Z,59.40
2019-03-05T17:45:56.287Z,61.20
2019-03-05T17:48:29.839Z,62.70
2019-03-05T17:50:59.068Z,63.50
2019-03-05T17:53:36.601Z,65.10
2019-03-05T17:56:08.587Z,65.90
2019-03-05T17:58:37.594Z,67.60
2019-03-05T18:01:09.423Z,67.60
2019-03-05T18:03:38.651Z,68.70
2019-03-05T18:06:08.375Z,68.10
2019-03-05T18:08:37.770Z,69.30
2019-03-05T18:11:07.580Z,70.00
2019-03-05T18:13:36.567Z,70.80
2019-03-05T18:16:06.036Z,71.90
2019-03-05T18:18:35.039Z,73.90
2019-03-05T18:21:04.746Z,73.50
2019-03-05T18:23:34.455Z,74.10
2019-03-05T18:26:03.449Z,73.20
2019-03-05T18:28:32.955Z,72.00
2019-03-05T18:31:01.952Z,72.00
2019-03-05T18:33:31.154Z,72.90
2019-03-05T18:36:00.161Z,74.20
2019-03-05T18:38:29.318Z,74.10
2019-03-05T18:40:58.764Z,73.80
2019-03-05T18:43:27.880Z,73.70
2019-03-05T18:45:56.780Z,75.00
2019-03-05T18:48:26.221Z,72.10
2019-03-05T18:50:55.262Z,73.70
2019-03-05T18:53:24.718Z,74.60
2019-03-05T18:55:55.294Z,74.50
2019-03-05T18:58:24.305Z,74.60
2019-03-05T19:00:53.442Z,75.60
2019-03-05T19:03:22.774Z,75.80
2019-03-05T19:05:51.936Z,77.30
2019-03-05T19:08:21.120Z,77.00
2019-03-05T19:10:50.240Z,76.60
2019-03-05T19:13:19.304Z,78.10
2019-03-05T19:15:48.722Z,77.80
2019-03-05T19:18:17.675Z,78.00
2019-03-05T19:20:46.804Z,79.90
2019-03-05T19:23:16.034Z,79.90
2019-03-05T19:25:45.274Z,79.90
2019-03-05T19:28:18.011Z,81.70
2019-03-05T19:30:47.464Z,81.80
2019-03-05T19:33:16.950Z,82.70
2019-03-05T19:35:46.178Z,82.50
2019-03-05T19:38:15.506Z,83.60
2019-03-05T19:40:45.254Z,84.70
2019-03-05T19:43:14.319Z,84.80
2019-03-05T19:45:43.612Z,86.20
2019-03-05T19:48:12.591Z,87.40
2019-03-05T19:50:42.519Z,87.40
2019-03-05T19:53:12.338Z,89.90
2019-03-05T19:55:41.179Z,88.30
2019-03-05T19:58:11.333Z,87.40
2019-03-05T20:00:58.351Z,87.70
2019-03-05T20:03:27.978Z,87.40
2019-03-05T20:05:57.051Z,88.90
2019-03-05T20:08:26.422Z,87.70
2019-03-05T20:10:55.485Z,87.30
2019-03-05T20:13:24.385Z,89.00
2019-03-05T20:15:53.648Z,89.80
2019-03-05T20:18:23.208Z,88.90
2019-03-05T20:20:52.360Z,89.10
2019-03-05T20:23:21.758Z,90.30
2019-03-05T20:25:50.982Z,90.30
2019-03-05T20:28:20.311Z,90.90
2019-03-05T20:30:49.926Z,90.80
2019-03-05T20:33:19.475Z,91.50
2019-03-05T20:35:48.920Z,92.20
2019-03-05T20:38:18.269Z,92.10
2019-03-05T20:40:47.467Z,92.70
2019-03-05T20:43:16.553Z,93.30
2019-03-05T20:45:45.975Z,93.10
2019-03-05T20:48:15.710Z,94.00
2019-03-05T20:50:44.556Z,94.60
2019-03-05T20:53:13.470Z,94.40
2019-03-05T20:55:42.714Z,94.40
2019-03-05T20:58:11.746Z,94.60
2019-03-05T21:00:41.407Z,95.60
2019-03-05T21:03:10.573Z,95.40
2019-03-05T21:05:41.239Z,95.50
2019-03-05T21:08:10.580Z,95.50
2019-03-05T21:10:39.699Z,95.90
2019-03-05T21:13:09.267Z,96.20
2019-03-05T21:15:38.600Z,96.50
2019-03-05T21:18:08.027Z,96.80
2019-03-05T21:20:39.134Z,96.90
2019-03-05T21:23:08.544Z,97.20
2019-03-05T21:25:37.531Z,97.70
2019-03-05T21:28:06.652Z,97.30
2019-03-05T21:30:35.653Z,97.70
2019-03-05T21:33:04.815Z,97.80
2019-03-05T21:35:33.794Z,97.80
2019-03-05T21:38:02.878Z,97.70
2019-03-05T21:40:31.809Z,97.70
2019-03-05T21:43:00.847Z,98.10
2019-03-05T21:45:32.539Z,98.20
2019-03-05T21:48:02.108Z,98.00
2019-03-05T21:50:30.914Z,98.00
2019-03-05T21:53:00.319Z,98.40
2019-03-05T21:55:29.313Z,98.60
2019-03-05T21:57:58.390Z,98.30
2019-03-05T22:00:29.010Z,98.30
2019-03-05T22:02:58.987Z,98.50
2019-03-05T22:05:28.286Z,98.30
2019-03-05T22:07:57.481Z,98.20
2019-03-05T22:10:26.620Z,98.30
2019-03-05T22:12:55.567Z,98.30
2019-03-05T22:15:24.741Z,98.10
2019-03-05T22:17:53.879Z,98.10
2019-03-05T22:20:23.622Z,97.90
2019-03-05T22:22:52.899Z,97.90
2019-03-05T22:25:21.942Z,97.90
2019-03-05T22:27:51.225Z,97.80
2019-03-05T22:30:22.604Z,97.60
2019-03-05T22:32:51.903Z,97.90
2019-03-05T22:35:20.926Z,97.50
2019-03-05T22:37:49.811Z,97.20
2019-03-05T22:40:18.829Z,97.30
2019-03-05T22:42:47.808Z,97.60
2019-03-05T22:45:18.939Z,97.70
2019-03-05T22:47:49.622Z,97.50
2019-03-05T22:50:19.124Z,97.50
2019-03-05T22:52:48.088Z,97.70
2019-03-05T22:55:18.529Z,97.80
2019-03-05T22:57:47.705Z,97.60
2019-03-05T23:00:50.051Z,97.50
2019-03-05T23:03:20.633Z,97.60
2019-03-05T23:05:49.854Z,97.20
2019-03-05T23:08:20.840Z,97.30
2019-03-05T23:10:50.036Z,97.30
2019-03-05T23:13:19.366Z,97.50
2019-03-05T23:15:48.897Z,97.60
2019-03-05T23:18:18.506Z,97.70
2019-03-05T23:20:47.443Z,97.90
2019-03-05T23:23:16.513Z,97.90
2019-03-05T23:25:45.530Z,98.10
2019-03-05T23:28:14.822Z,98.10
2019-03-05T23:30:43.815Z,98.40
2019-03-05T23:33:13.214Z,98.10
2019-03-05T23:35:42.285Z,98.40
2019-03-05T23:38:11.250Z,98.50
2019-03-05T23:40:40.317Z,98.10
2019-03-05T23:43:09.393Z,98.00
2019-03-05T23:45:38.316Z,98.50
2019-03-05T23:48:07.434Z,98.90
2019-03-05T23:50:36.451Z,98.70
2019-03-05T23:53:05.447Z,98.60
2019-03-05T23:55:34.415Z,98.50
2019-03-05T23:58:03.352Z,98.60
